createdAt,value
2017-05-26T00:01:03.752Z,1019.03
2017-05-26T00:02:14.770Z,1019.07
2017-05-26T00:03:25.829Z,1019.07
2017-05-26T00:04:37.046Z,1019.07
2017-05-26T00:05:48.257Z,1019.08
2017-05-26T00:06:59.268Z,1019.09
2017-05-26T00:08:10.336Z,1019.11
2017-05-26T00:09:21.406Z,1019.14
2017-05-26T00:10:32.429Z,1019.16
2017-05-26T00:11:43.644Z,1019.11
2017-05-26T00:12:54.658Z,1019.1
2017-05-26T00:14:05.670Z,1019.09
2017-05-26T00:15:16.737Z,1019.13
2017-05-26T00:16:27.752Z,1019.09
2017-05-26T00:17:38.774Z,1019.1
2017-05-26T00:18:49.799Z,1019.07
2017-05-26T00:20:00.818Z,1019.1
2017-05-26T00:21:12.089Z,1019.14
2017-05-26T00:22:23.088Z,1019.1
2017-05-26T00:23:34.099Z,1019.06
2017-05-26T00:24:45.109Z,1019.08
2017-05-26T00:25:56.164Z,1019.05
2017-05-26T00:27:07.216Z,1019.05
2017-05-26T00:28:18.430Z,1019.06
2017-05-26T00:29:29.438Z,1019.03
2017-05-26T00:30:40.453Z,1019.04
2017-05-26T00:31:51.669Z,1019.08
2017-05-26T00:33:02.734Z,1019.09
2017-05-26T00:34:13.758Z,1019.04
2017-05-26T00:35:24.973Z,1019.07
2017-05-26T00:36:35.989Z,1019.06
2017-05-26T00:37:47.198Z,1019
2017-05-26T00:38:58.254Z,1019.04
2017-05-26T00:40:09.458Z,1019.05
2017-05-26T00:41:20.487Z,1019.01
2017-05-26T00:42:31.504Z,1019.02
2017-05-26T00:43:42.521Z,1018.98
2017-05-26T00:44:53.584Z,1019.05
2017-05-26T00:46:04.606Z,1019.03
2017-05-26T00:47:15.610Z,1018.99
2017-05-26T00:48:26.637Z,1019.03
2017-05-26T00:49:37.647Z,1019.04
2017-05-26T00:50:48.657Z,1019.02
2017-05-26T00:51:59.678Z,1019.01
2017-05-26T00:53:10.886Z,1019.04
2017-05-26T00:54:21.903Z,1019.02
2017-05-26T00:55:32.965Z,1019.04
2017-05-26T00:56:44.176Z,1019.01
2017-05-26T00:57:55.190Z,1019.03
2017-05-26T00:59:06.197Z,1018.97
2017-05-26T01:00:17.241Z,1018.95
2017-05-26T01:01:28.303Z,1018.96
2017-05-26T01:02:39.322Z,1018.99
2017-05-26T01:03:50.327Z,1018.95
2017-05-26T01:05:01.553Z,1018.98
2017-05-26T01:06:12.578Z,1018.97
2017-05-26T01:07:23.641Z,1018.97
2017-05-26T01:08:34.655Z,1018.96
2017-05-26T01:09:45.669Z,1018.94
2017-05-26T01:10:56.681Z,1018.95
2017-05-26T01:12:07.704Z,1018.92
2017-05-26T01:13:18.967Z,1018.95
2017-05-26T01:14:29.983Z,1018.93
2017-05-26T01:15:41.007Z,1018.93
2017-05-26T01:16:52.013Z,1018.95
2017-05-26T01:18:03.029Z,1018.93
2017-05-26T01:19:14.096Z,1018.93
2017-05-26T01:20:25.115Z,1018.93
2017-05-26T01:21:36.117Z,1018.93
2017-05-26T01:22:47.119Z,1018.91
2017-05-26T01:23:58.328Z,1018.93
2017-05-26T01:25:09.392Z,1018.92
2017-05-26T01:26:20.403Z,1018.92
2017-05-26T01:27:31.403Z,1018.93
2017-05-26T01:28:42.410Z,1018.99
2017-05-26T01:29:53.424Z,1018.94
2017-05-26T01:31:04.488Z,1019
2017-05-26T01:32:15.497Z,1018.96
2017-05-26T01:33:26.509Z,1018.96
2017-05-26T01:34:37.730Z,1018.98
2017-05-26T01:35:48.743Z,1018.96
2017-05-26T01:36:59.812Z,1018.97
2017-05-26T01:38:10.827Z,1018.99
2017-05-26T01:39:21.833Z,1019.02
2017-05-26T01:40:32.843Z,1019.01
2017-05-26T01:41:43.852Z,1019.03
2017-05-26T01:42:54.911Z,1019.03
2017-05-26T01:44:05.924Z,1019.03
2017-05-26T01:45:16.923Z,1019.04
2017-05-26T01:46:27.935Z,1019.02
2017-05-26T01:47:38.945Z,1019.03
2017-05-26T01:48:50.003Z,1019.01
2017-05-26T01:50:01.022Z,1018.97
2017-05-26T01:51:12.027Z,1018.97
2017-05-26T01:52:23.038Z,1018.97
2017-05-26T01:53:34.042Z,1018.96
2017-05-26T01:54:45.305Z,1018.93
2017-05-26T01:55:56.333Z,1018.97
2017-05-26T01:57:07.332Z,1018.99
2017-05-26T01:58:18.603Z,1018.99
2017-05-26T01:59:29.622Z,1019
2017-05-26T02:00:40.852Z,1018.96
2017-05-26T02:01:51.867Z,1018.97
2017-05-26T02:03:02.889Z,1018.96
2017-05-26T02:04:13.908Z,1018.97
2017-05-26T02:05:24.979Z,1018.95
2017-05-26T02:06:36.193Z,1018.95
2017-05-26T02:07:47.205Z,1018.97
2017-05-26T02:08:58.205Z,1018.96
2017-05-26T02:10:09.216Z,1018.97
2017-05-26T02:11:20.268Z,1018.96
2017-05-26T02:12:31.287Z,1018.98
2017-05-26T02:13:42.304Z,1019
2017-05-26T02:14:53.533Z,1018.95
2017-05-26T02:16:04.548Z,1018.94
2017-05-26T02:17:15.802Z,1018.9
2017-05-26T02:18:27.028Z,1018.95
2017-05-26T02:19:38.049Z,1018.93
2017-05-26T02:20:49.070Z,1018.97
2017-05-26T02:22:00.087Z,1018.98
2017-05-26T02:23:11.354Z,1018.96
2017-05-26T02:24:22.554Z,1018.97
2017-05-26T02:25:33.576Z,1019
2017-05-26T02:26:44.585Z,1019.01
2017-05-26T02:27:55.591Z,1019.02
2017-05-26T02:29:06.655Z,1019.04
2017-05-26T02:30:17.881Z,1019.05
2017-05-26T02:31:28.889Z,1019.06
2017-05-26T02:32:39.910Z,1019.08
2017-05-26T02:33:50.929Z,1019.08
2017-05-26T02:35:01.985Z,1019.06
2017-05-26T02:36:13.009Z,1019.05
2017-05-26T02:37:24.013Z,1019.06
2017-05-26T02:38:35.036Z,1019.06
2017-05-26T02:39:46.249Z,1019.06
2017-05-26T02:40:57.263Z,1019.03
2017-05-26T02:42:08.470Z,1019.06
2017-05-26T02:43:19.491Z,1019.07
2017-05-26T02:44:30.503Z,1019.06
2017-05-26T02:45:41.572Z,1019.06
2017-05-26T02:46:52.574Z,1019.06
2017-05-26T02:48:03.591Z,1019.05
2017-05-26T02:49:14.602Z,1019.04
2017-05-26T02:50:25.810Z,1019.06
2017-05-26T02:51:36.871Z,1019.05
2017-05-26T02:52:48.158Z,1019.07
2017-05-26T02:53:59.181Z,1019.11
2017-05-26T02:55:10.802Z,1019.11
2017-05-26T02:56:21.803Z,1019.14
2017-05-26T02:57:32.927Z,1019.17
2017-05-26T02:58:43.949Z,1019.17
2017-05-26T02:59:54.962Z,1019.16
2017-05-26T03:01:05.971Z,1019.18
2017-05-26T03:02:17.000Z,1019.17
2017-05-26T03:03:28.282Z,1019.16
2017-05-26T03:04:39.296Z,1019.11
2017-05-26T03:05:50.305Z,1019.15
2017-05-26T03:07:01.312Z,1019.13
2017-05-26T03:08:12.313Z,1019.13
2017-05-26T03:09:23.377Z,1019.11
2017-05-26T03:10:34.382Z,1019.15
2017-05-26T03:11:45.583Z,1019.14
2017-05-26T03:12:56.612Z,1019.11
2017-05-26T03:14:07.629Z,1019.14
2017-05-26T03:15:18.727Z,1019.11
2017-05-26T03:16:29.743Z,1019.11
2017-05-26T03:17:40.959Z,1019.14
2017-05-26T03:18:51.975Z,1019.09
2017-05-26T03:20:02.987Z,1019.14
2017-05-26T03:21:14.049Z,1019.15
2017-05-26T03:22:25.060Z,1019.18
2017-05-26T03:23:36.071Z,1019.17
2017-05-26T03:24:47.288Z,1019.18
2017-05-26T03:25:58.307Z,1019.15
2017-05-26T03:27:09.618Z,1019.21
2017-05-26T03:28:21.035Z,1019.2
2017-05-26T03:29:32.045Z,1019.16
2017-05-26T03:30:43.459Z,1019.12
2017-05-26T03:31:54.468Z,1019.13
2017-05-26T03:33:05.536Z,1019.15
2017-05-26T03:34:16.761Z,1019.14
2017-05-26T03:35:27.993Z,1019.14
2017-05-26T03:36:39.020Z,1019.08
2017-05-26T03:37:50.038Z,1019.12
2017-05-26T03:39:01.105Z,1019.15
2017-05-26T03:40:12.111Z,1019.13
2017-05-26T03:41:23.135Z,1019.14
2017-05-26T03:42:34.344Z,1019.14
2017-05-26T03:43:45.361Z,1019.11
2017-05-26T03:44:56.437Z,1019.11
2017-05-26T03:46:07.457Z,1019.13
2017-05-26T03:47:18.471Z,1019.15
2017-05-26T03:48:29.474Z,1019.1
2017-05-26T03:49:40.485Z,1019.14
2017-05-26T03:50:51.498Z,1019.1
2017-05-26T03:52:02.497Z,1019.09
2017-05-26T03:53:13.710Z,1019.12
2017-05-26T03:54:24.726Z,1019.12
2017-05-26T03:55:35.894Z,1019.18
2017-05-26T03:56:46.909Z,1019.14
2017-05-26T03:57:57.917Z,1019.18
2017-05-26T03:59:08.938Z,1019.16
2017-05-26T04:00:19.940Z,1019.2
2017-05-26T04:01:30.992Z,1019.18
2017-05-26T04:02:42.013Z,1019.17
2017-05-26T04:03:53.046Z,1019.21
2017-05-26T04:05:04.062Z,1019.2
2017-05-26T04:06:15.077Z,1019.22
2017-05-26T04:07:26.184Z,1019.21
2017-05-26T04:08:37.199Z,1019.22
2017-05-26T04:09:48.224Z,1019.23
2017-05-26T04:10:59.242Z,1019.19
2017-05-26T04:12:10.248Z,1019.22
2017-05-26T04:13:21.341Z,1019.21
2017-05-26T04:14:32.358Z,1019.23
2017-05-26T04:15:43.574Z,1019.24
2017-05-26T04:16:54.802Z,1019.26
2017-05-26T04:18:05.812Z,1019.25
2017-05-26T04:19:17.078Z,1019.24
2017-05-26T04:20:28.089Z,1019.25
2017-05-26T04:21:39.105Z,1019.24
2017-05-26T04:22:50.122Z,1019.21
2017-05-26T04:24:01.134Z,1019.23
2017-05-26T04:25:12.228Z,1019.23
2017-05-26T04:26:23.237Z,1019.18
2017-05-26T04:27:34.238Z,1019.16
2017-05-26T04:28:45.259Z,1019.19
2017-05-26T04:29:56.288Z,1019.19
2017-05-26T04:31:07.361Z,1019.17
2017-05-26T04:32:18.375Z,1019.2
2017-05-26T04:33:29.388Z,1019.21
2017-05-26T04:34:40.413Z,1019.24
2017-05-26T04:35:51.440Z,1019.22
2017-05-26T04:37:02.503Z,1019.22
2017-05-26T04:38:13.534Z,1019.17
2017-05-26T04:39:24.559Z,1019.18
2017-05-26T04:40:35.776Z,1019.19
2017-05-26T04:41:46.788Z,1019.19
2017-05-26T04:42:58.247Z,1019.19
2017-05-26T04:44:09.255Z,1019.22
2017-05-26T04:45:20.482Z,1019.21
2017-05-26T04:46:31.505Z,1019.18
2017-05-26T04:47:42.526Z,1019.18
2017-05-26T04:48:53.788Z,1019.18
2017-05-26T04:50:04.836Z,1019.2
2017-05-26T04:51:15.848Z,1019.19
2017-05-26T04:52:27.060Z,1019.23
2017-05-26T04:53:38.083Z,1019.2
2017-05-26T04:54:49.154Z,1019.18
2017-05-26T04:56:00.172Z,1019.2
2017-05-26T04:57:11.194Z,1019.19
2017-05-26T04:58:22.214Z,1019.18
2017-05-26T04:59:33.238Z,1019.2
2017-05-26T05:00:44.258Z,1019.16
2017-05-26T05:01:55.276Z,1019.15
2017-05-26T05:03:06.313Z,1019.11
2017-05-26T05:04:17.319Z,1019.11
2017-05-26T05:05:28.395Z,1019.1
2017-05-26T05:06:39.612Z,1019.11
2017-05-26T05:07:50.643Z,1019.11
2017-05-26T05:09:01.671Z,1019.12
2017-05-26T05:10:12.685Z,1019.1
2017-05-26T05:11:23.756Z,1019.15
2017-05-26T05:12:34.783Z,1019.17
2017-05-26T05:13:45.803Z,1019.2
2017-05-26T05:14:57.227Z,1019.15
2017-05-26T05:16:08.251Z,1019.14
2017-05-26T05:17:19.371Z,1019.14
2017-05-26T05:18:30.602Z,1019.14
2017-05-26T05:19:41.622Z,1019.18
2017-05-26T05:20:52.667Z,1019.1
2017-05-26T05:22:04.082Z,1019.15
2017-05-26T05:23:15.151Z,1019.14
2017-05-26T05:24:26.382Z,1019.17
2017-05-26T05:25:37.423Z,1019.15
2017-05-26T05:26:48.457Z,1019.14
2017-05-26T05:27:59.489Z,1019.1
2017-05-26T05:29:10.824Z,1019.12
2017-05-26T05:30:21.842Z,1019.13
2017-05-26T05:31:32.872Z,1019.11
2017-05-26T05:32:43.893Z,1019.09
2017-05-26T05:33:55.116Z,1019.06
2017-05-26T05:35:06.189Z,1019.06
2017-05-26T05:36:17.225Z,1019.07
2017-05-26T05:37:28.234Z,1019.02
2017-05-26T05:38:39.257Z,1019
2017-05-26T05:39:50.283Z,1019.02
2017-05-26T05:41:01.362Z,1019.03
2017-05-26T05:42:12.385Z,1019.07
2017-05-26T05:43:23.434Z,1019.1
2017-05-26T05:44:34.655Z,1019.12
2017-05-26T05:45:45.878Z,1019.13
2017-05-26T05:46:56.949Z,1019.13
2017-05-26T05:48:08.161Z,1019.1
2017-05-26T05:49:19.186Z,1019.11
2017-05-26T05:50:30.203Z,1019.11
2017-05-26T05:51:41.424Z,1019.11
2017-05-26T05:52:52.699Z,1019.12
2017-05-26T05:54:03.723Z,1019.17
2017-05-26T05:55:15.362Z,1019.16
2017-05-26T05:56:26.382Z,1019.15
2017-05-26T05:57:37.396Z,1019.22
2017-05-26T05:58:48.463Z,1019.24
2017-05-26T05:59:59.487Z,1019.25
2017-05-26T06:01:10.504Z,1019.24
2017-05-26T06:02:21.524Z,1019.23
2017-05-26T06:03:32.748Z,1019.24
2017-05-26T06:04:43.836Z,1019.25
2017-05-26T06:05:54.868Z,1019.26
2017-05-26T06:07:05.887Z,1019.24
2017-05-26T06:08:16.895Z,1019.27
2017-05-26T06:09:27.925Z,1019.25
2017-05-26T06:10:38.950Z,1019.31
2017-05-26T06:11:49.971Z,1019.25
2017-05-26T06:13:00.994Z,1019.33
2017-05-26T06:14:12.024Z,1019.38
2017-05-26T06:15:23.301Z,1019.38
2017-05-26T06:16:34.321Z,1019.43
2017-05-26T06:17:45.342Z,1019.42
2017-05-26T06:18:56.381Z,1019.43
2017-05-26T06:20:07.411Z,1019.47
2017-05-26T06:21:18.893Z,1019.47
2017-05-26T06:22:30.989Z,1019.48
2017-05-26T06:23:46.475Z,1019.5
2017-05-26T06:24:57.507Z,1019.49
2017-05-26T06:26:08.722Z,1019.47
2017-05-26T06:27:19.799Z,1019.49
2017-05-26T06:28:30.815Z,1019.5
2017-05-26T06:29:41.847Z,1019.47
2017-05-26T06:30:52.888Z,1019.5
2017-05-26T06:32:04.175Z,1019.54
2017-05-26T06:33:15.400Z,1019.53
2017-05-26T06:34:26.435Z,1019.59
2017-05-26T06:35:37.467Z,1019.59
2017-05-26T06:36:48.702Z,1019.64
2017-05-26T06:37:59.775Z,1019.66
2017-05-26T06:39:10.857Z,1019.68
2017-05-26T06:40:24.227Z,1019.66
2017-05-26T06:41:35.490Z,1019.67
2017-05-26T06:42:46.538Z,1019.7
2017-05-26T06:43:57.822Z,1019.7
2017-05-26T06:45:08.847Z,1019.7
2017-05-26T06:46:19.874Z,1019.72
2017-05-26T06:47:30.918Z,1019.75
2017-05-26T06:48:41.952Z,1019.73
2017-05-26T06:49:53.039Z,1019.71
2017-05-26T06:51:04.069Z,1019.66
2017-05-26T06:52:15.312Z,1019.69
2017-05-26T06:53:26.339Z,1019.7
2017-05-26T06:54:37.585Z,1019.74
2017-05-26T06:55:48.664Z,1019.71
2017-05-26T06:56:59.685Z,1019.75
2017-05-26T06:58:10.710Z,1019.79
2017-05-26T06:59:21.746Z,1019.82
2017-05-26T07:00:33.862Z,1019.88
2017-05-26T07:01:48.377Z,1019.87
2017-05-26T07:03:02.746Z,1019.91
2017-05-26T07:04:13.979Z,1019.94
2017-05-26T07:05:25.041Z,1019.98
2017-05-26T07:06:36.069Z,1020.01
2017-05-26T07:07:47.154Z,1020.06
2017-05-26T07:08:58.191Z,1020.15
2017-05-26T07:10:09.243Z,1020.24
2017-05-26T07:11:20.281Z,1020.37
2017-05-26T07:12:31.525Z,1020.56
2017-05-26T07:13:42.615Z,1020.73
2017-05-26T07:14:53.856Z,1020.98
2017-05-26T07:16:05.096Z,1021.19
2017-05-26T07:17:16.128Z,1021.39
2017-05-26T07:18:27.740Z,1021.09
2017-05-26T07:19:38.816Z,1021.19
2017-05-26T07:20:49.856Z,1022.03
2017-05-26T07:22:01.152Z,1022.24
2017-05-26T07:23:13.015Z,1022.27
2017-05-26T07:24:25.382Z,1022.49
2017-05-26T07:25:36.591Z,1022.98
2017-05-26T07:26:47.625Z,1023.52
2017-05-26T07:27:58.665Z,1023.92
2017-05-26T07:29:09.704Z,1024.16
2017-05-26T07:30:21.696Z,1024.9
2017-05-26T07:31:34.464Z,1025.36
2017-05-26T07:32:45.575Z,1025.59
2017-05-26T07:33:56.995Z,1026.04
2017-05-26T07:35:08.303Z,1026.16
2017-05-26T07:36:19.361Z,1026.53
2017-05-26T07:37:30.850Z,1026.8
2017-05-26T07:38:42.682Z,1027.05
2017-05-26T07:39:53.976Z,1027.27
2017-05-26T07:41:05.034Z,1028.07
2017-05-26T07:42:16.173Z,1028.09
2017-05-26T07:43:27.287Z,1028.05
2017-05-26T07:44:38.420Z,1027.74
2017-05-26T07:45:49.467Z,1027.83
2017-05-26T07:47:00.804Z,1028.03
2017-05-26T07:48:43.525Z,1028.74
2017-05-26T07:49:54.573Z,1029.07
2017-05-26T07:51:05.614Z,1029.23
2017-05-26T07:52:16.739Z,1028.51
2017-05-26T07:53:27.778Z,1029.34
2017-05-26T07:54:40.375Z,1029.42
2017-05-26T07:55:51.432Z,1029.04
2017-05-26T07:57:02.474Z,1028.69
2017-05-26T07:58:13.534Z,1028.47
2017-05-26T07:59:24.685Z,1028.63
2017-05-26T08:00:35.776Z,1028.23
2017-05-26T08:01:47.024Z,1027.99
2017-05-26T08:02:58.109Z,1028.4
2017-05-26T08:04:09.231Z,1028.13
2017-05-26T08:05:20.354Z,1027.74
2017-05-26T08:06:31.449Z,1027.95
2017-05-26T08:07:42.759Z,1027.37
2017-05-26T08:08:53.795Z,1027.85
2017-05-26T08:10:04.825Z,1027.73
2017-05-26T08:11:16.084Z,1027.11
2017-05-26T08:12:27.226Z,1026.37
2017-05-26T08:13:38.262Z,1025.68
2017-05-26T08:14:49.694Z,1025.79
2017-05-26T08:16:03.599Z,1025.7
2017-05-26T08:17:14.688Z,1025.28
2017-05-26T08:18:25.798Z,1025.33
2017-05-26T08:19:37.033Z,1025.7
2017-05-26T08:20:48.523Z,1025.06
2017-05-26T08:21:59.786Z,1023.73
2017-05-26T08:23:11.179Z,1022.06
2017-05-26T08:24:22.819Z,1021.37
2017-05-26T08:25:40.347Z,1020.94
2017-05-26T08:26:54.654Z,1020.52
2017-05-26T08:28:07.244Z,1020.47
2017-05-26T08:29:19.504Z,1020.6
2017-05-26T08:30:31.044Z,1020.75
2017-05-26T08:31:42.393Z,1020.91
2017-05-26T08:32:53.483Z,1021.29
2017-05-26T08:34:05.248Z,1021.5
2017-05-26T08:35:16.287Z,1021.68
2017-05-26T08:36:27.317Z,1021.82
2017-05-26T08:37:38.548Z,1021.82
2017-05-26T08:38:49.845Z,1021.67
2017-05-26T08:40:00.891Z,1021.47
2017-05-26T08:41:11.932Z,1021.76
2017-05-26T08:42:23.063Z,1022.09
2017-05-26T08:43:34.887Z,1022.45
2017-05-26T08:44:46.727Z,1022.75
2017-05-26T08:45:58.380Z,1022.88
2017-05-26T08:47:09.771Z,1023.13
2017-05-26T08:48:21.727Z,1023.24
2017-05-26T08:49:33.381Z,1023.21
2017-05-26T08:50:45.148Z,1023.21
2017-05-26T08:51:56.750Z,1023.38
2017-05-26T08:53:08.267Z,1023.38
2017-05-26T08:54:19.866Z,1023.46
2017-05-26T08:55:31.615Z,1023.64
2017-05-26T08:56:43.479Z,1023.8
2017-05-26T08:57:55.241Z,1023.87
2017-05-26T08:59:06.938Z,1023.77
2017-05-26T09:00:18.520Z,1023.76
2017-05-26T09:01:30.558Z,1023.63
2017-05-26T09:02:42.087Z,1023.46
2017-05-26T09:03:56.351Z,1023.29
2017-05-26T09:05:19.797Z,1023.53
2017-05-26T09:06:31.432Z,1023.69
2017-05-26T09:07:42.976Z,1023.83
2017-05-26T09:08:54.743Z,1023.83
2017-05-26T09:10:06.181Z,1023.85
2017-05-26T09:11:17.664Z,1023.83
2017-05-26T09:12:29.306Z,1023.97
2017-05-26T09:13:41.027Z,1024.13
2017-05-26T09:14:53.053Z,1024.36
2017-05-26T09:16:04.611Z,1024.41
2017-05-26T09:17:16.271Z,1024.84
2017-05-26T09:18:27.936Z,1024.51
2017-05-26T09:19:39.454Z,1024.53
2017-05-26T09:20:51.206Z,1024.85
2017-05-26T09:22:03.015Z,1025.08
2017-05-26T09:23:14.660Z,1025.35
2017-05-26T09:24:26.311Z,1025.33
2017-05-26T09:25:37.914Z,1025.23
2017-05-26T09:26:49.359Z,1025.57
2017-05-26T09:28:01.168Z,1019.25
2017-05-26T09:29:12.779Z,1025.65
2017-05-26T09:30:26.223Z,1025.53
2017-05-26T09:31:42.150Z,1025.94
2017-05-26T09:32:58.746Z,1019.12
2017-05-26T09:34:33.188Z,1026.12
2017-05-26T09:35:44.813Z,1025.93
2017-05-26T09:36:56.516Z,1026.48
2017-05-26T09:38:08.227Z,1026.84
2017-05-26T09:39:19.518Z,1026.97
2017-05-26T09:40:31.309Z,1026.93
2017-05-26T09:41:43.401Z,1026.8
2017-05-26T09:42:55.301Z,1025.86
2017-05-26T09:44:06.994Z,1026.81
2017-05-26T09:45:18.546Z,1026.62
2017-05-26T09:46:29.983Z,1026.61
2017-05-26T09:47:41.532Z,1027.3
2017-05-26T09:48:52.955Z,1027.49
2017-05-26T09:50:04.167Z,1027.49
2017-05-26T09:51:15.734Z,1027.47
2017-05-26T09:52:26.831Z,1027.25
2017-05-26T09:53:38.166Z,1027.23
2017-05-26T09:54:50.336Z,1027.07
2017-05-26T09:56:08.023Z,1027.23
2017-05-26T09:57:19.098Z,1027.46
2017-05-26T09:58:30.135Z,1027.55
2017-05-26T09:59:41.229Z,1026.75
2017-05-26T10:00:52.611Z,1026.44
2017-05-26T10:02:03.686Z,1027.65
2017-05-26T10:03:14.715Z,1027.55
2017-05-26T10:04:25.792Z,1027.38
2017-05-26T10:05:36.824Z,1027.72
2017-05-26T10:06:47.859Z,1027.23
2017-05-26T10:07:59.100Z,1027.4
2017-05-26T10:09:10.135Z,1027.47
2017-05-26T10:10:21.396Z,1027.66
2017-05-26T10:11:32.826Z,1026.3
2017-05-26T10:12:43.867Z,1025.38
2017-05-26T10:13:54.928Z,1026.56
2017-05-26T10:15:05.997Z,1026.6
2017-05-26T10:16:17.241Z,1026.43
2017-05-26T10:17:28.284Z,1026.33
2017-05-26T10:18:39.312Z,1026.24
2017-05-26T10:19:50.347Z,1025.88
2017-05-26T10:21:01.442Z,1025.61
2017-05-26T10:22:12.478Z,1025.16
2017-05-26T10:23:23.514Z,1024.59
2017-05-26T10:24:34.554Z,1024.29
2017-05-26T10:25:45.597Z,1024.19
2017-05-26T10:26:56.680Z,1023.84
2017-05-26T10:28:07.719Z,1023.45
2017-05-26T10:29:18.755Z,1023.26
2017-05-26T10:30:29.795Z,1022.84
2017-05-26T10:31:41.022Z,1022.47
2017-05-26T10:32:52.113Z,1021.95
2017-05-26T10:34:03.353Z,1021.65
2017-05-26T10:35:14.381Z,1021.19
2017-05-26T10:36:25.618Z,1021
2017-05-26T10:37:36.846Z,1020.93
2017-05-26T10:38:47.933Z,1020.52
2017-05-26T10:39:58.964Z,1019.94
2017-05-26T10:41:10.002Z,1019.7
2017-05-26T10:42:21.039Z,1019.71
2017-05-26T10:43:32.272Z,1019.71
2017-05-26T10:44:43.416Z,1019.62
2017-05-26T10:45:54.456Z,1019.62
2017-05-26T10:47:05.489Z,1019.6
2017-05-26T10:48:16.523Z,1019.86
2017-05-26T10:49:27.564Z,1020.09
2017-05-26T10:50:38.586Z,1020.28
2017-05-26T10:51:49.623Z,1020.43
2017-05-26T10:53:00.860Z,1020.48
2017-05-26T10:54:12.081Z,1020.62
2017-05-26T10:55:23.169Z,1020.7
2017-05-26T10:56:34.208Z,1020.79
2017-05-26T10:57:45.241Z,1020.89
2017-05-26T10:58:56.290Z,1020.99
2017-05-26T11:00:07.527Z,1020.95
2017-05-26T11:01:18.606Z,1020.85
2017-05-26T11:02:29.644Z,1020.82
2017-05-26T11:03:40.677Z,1020.68
2017-05-26T11:04:51.716Z,1020.5
2017-05-26T11:06:02.750Z,1020.36
2017-05-26T11:07:14.030Z,1020.31
2017-05-26T11:08:25.070Z,1020.28
2017-05-26T11:09:36.114Z,1020.26
2017-05-26T11:10:47.155Z,1020.21
2017-05-26T11:11:58.397Z,1020.14
2017-05-26T11:13:09.483Z,1020.21
2017-05-26T11:14:20.532Z,1020.14
2017-05-26T11:15:31.574Z,1020.03
2017-05-26T11:16:42.606Z,1020.08
2017-05-26T11:17:53.629Z,1020.14
2017-05-26T11:19:04.715Z,1020.14
2017-05-26T11:20:15.756Z,1020.03
2017-05-26T11:21:26.780Z,1019.9
2017-05-26T11:22:37.813Z,1019.61
2017-05-26T11:23:49.054Z,1019.33
2017-05-26T11:25:00.352Z,1018.98
2017-05-26T11:26:11.387Z,1018.77
2017-05-26T11:27:22.425Z,1018.69
2017-05-26T11:28:33.450Z,1018.63
2017-05-26T11:29:44.692Z,1018.58
2017-05-26T11:30:55.729Z,1018.56
2017-05-26T11:32:06.758Z,1018.55
2017-05-26T11:33:17.784Z,1018.56
2017-05-26T11:34:28.830Z,1018.59
2017-05-26T11:35:40.170Z,1018.63
2017-05-26T11:36:51.195Z,1018.7
2017-05-26T11:38:02.243Z,1019.06
2017-05-26T11:39:13.280Z,1019.43
2017-05-26T11:40:24.517Z,1019.19
2017-05-26T11:41:35.590Z,1018.71
2017-05-26T11:42:46.698Z,1018.7
2017-05-26T11:43:57.940Z,1018.73
2017-05-26T11:45:08.976Z,1018.71
2017-05-26T11:46:20.409Z,1018.67
2017-05-26T11:47:31.495Z,1018.53
2017-05-26T11:48:42.524Z,1018.42
2017-05-26T11:49:53.552Z,1018.33
2017-05-26T11:51:04.593Z,1018.27
2017-05-26T11:52:15.626Z,1018.28
2017-05-26T11:53:26.904Z,1018.27
2017-05-26T11:54:38.135Z,1018.25
2017-05-26T11:55:49.167Z,1018.22
2017-05-26T11:57:00.193Z,1018.14
2017-05-26T11:58:11.429Z,1018.08
2017-05-26T11:59:22.717Z,1018.08
2017-05-26T12:00:33.755Z,1018.01
2017-05-26T12:01:44.784Z,1018.09
2017-05-26T12:02:55.811Z,1018.07
2017-05-26T12:04:06.850Z,1018.05
2017-05-26T12:05:17.932Z,1018.03
2017-05-26T12:06:28.975Z,1018
2017-05-26T12:07:40.015Z,1017.98
2017-05-26T12:08:51.064Z,1017.96
2017-05-26T12:10:02.298Z,1017.97
2017-05-26T12:11:13.594Z,1017.94
2017-05-26T12:12:24.631Z,1017.97
2017-05-26T12:13:35.665Z,1017.98
2017-05-26T12:14:46.902Z,1017.97
2017-05-26T12:15:58.350Z,1017.91
2017-05-26T12:17:09.423Z,1017.91
2017-05-26T12:18:20.646Z,1017.87
2017-05-26T12:19:31.681Z,1017.85
2017-05-26T12:20:42.717Z,1017.8
2017-05-26T12:21:53.758Z,1017.78
2017-05-26T12:23:04.845Z,1017.79
2017-05-26T12:24:15.885Z,1017.8
2017-05-26T12:25:26.902Z,1017.81
2017-05-26T12:26:42.781Z,1017.86
2017-05-26T12:28:20.510Z,1017.85
2017-05-26T12:29:31.533Z,1017.88
2017-05-26T12:30:48.061Z,1017.84
2017-05-26T12:32:22.475Z,1017.74
2017-05-26T12:33:34.696Z,1017.68
2017-05-26T12:34:58.154Z,1017.66
2017-05-26T12:36:09.197Z,1017.55
2017-05-26T12:37:20.431Z,1017.6
2017-05-26T12:38:31.453Z,1017.69
2017-05-26T12:39:49.060Z,1017.65
2017-05-26T12:41:17.177Z,1017.62
2017-05-26T12:42:28.208Z,1017.6
2017-05-26T12:43:39.486Z,1017.62
2017-05-26T12:44:50.529Z,1017.58
2017-05-26T12:46:01.560Z,1017.66
2017-05-26T12:47:16.327Z,1017.64
2017-05-26T12:48:56.668Z,1017.66
2017-05-26T12:50:07.687Z,1017.68
2017-05-26T12:51:18.919Z,1017.65
2017-05-26T12:52:29.946Z,1017.61
2017-05-26T12:53:40.982Z,1017.52
2017-05-26T12:54:52.067Z,1017.5
2017-05-26T12:56:03.292Z,1017.49
2017-05-26T12:57:14.517Z,1017.5
2017-05-26T12:58:25.550Z,1017.54
2017-05-26T12:59:36.774Z,1017.55
2017-05-26T13:00:48.007Z,1017.51
2017-05-26T13:01:59.039Z,1017.56
2017-05-26T13:03:10.068Z,1017.53
2017-05-26T13:04:21.087Z,1017.49
2017-05-26T13:05:32.157Z,1017.46
2017-05-26T13:06:43.240Z,1017.4
2017-05-26T13:07:54.338Z,1017.36
2017-05-26T13:09:05.370Z,1017.36
2017-05-26T13:10:24.902Z,1017.35
2017-05-26T13:11:35.979Z,1017.38
2017-05-26T13:12:47.004Z,1017.33
2017-05-26T13:13:58.435Z,1017.27
2017-05-26T13:15:09.973Z,1017.28
2017-05-26T13:16:21.251Z,1017.28
2017-05-26T13:17:32.283Z,1017.2
2017-05-26T13:18:44.414Z,1017.21
2017-05-26T13:19:55.438Z,1017.17
2017-05-26T13:21:06.461Z,1017.16
2017-05-26T13:22:17.539Z,1017.15
2017-05-26T13:23:28.574Z,1017.16
2017-05-26T13:24:39.866Z,1017.13
2017-05-26T13:25:50.898Z,1017.15
2017-05-26T13:27:01.926Z,1017.1
2017-05-26T13:28:13.002Z,1017.14
2017-05-26T13:29:24.233Z,1017.08
2017-05-26T13:30:35.259Z,1017.06
2017-05-26T13:31:46.277Z,1017.04
2017-05-26T13:32:57.313Z,1017.11
2017-05-26T13:34:08.382Z,1017.14
2017-05-26T13:35:19.412Z,1017.11
2017-05-26T13:36:30.442Z,1017.14
2017-05-26T13:37:41.461Z,1017.09
2017-05-26T13:38:52.483Z,1017.08
2017-05-26T13:40:03.521Z,1017.06
2017-05-26T13:41:14.537Z,1017
2017-05-26T13:42:25.561Z,1016.99
2017-05-26T13:43:45.658Z,1016.93
2017-05-26T13:45:04.024Z,1016.92
2017-05-26T13:46:15.268Z,1016.94
2017-05-26T13:47:26.304Z,1016.9
2017-05-26T13:48:37.523Z,1016.89
2017-05-26T13:49:48.550Z,1016.86
2017-05-26T13:50:59.625Z,1016.84
2017-05-26T13:52:10.653Z,1016.86
2017-05-26T13:53:21.677Z,1016.86
2017-05-26T13:54:32.698Z,1016.84
2017-05-26T13:55:43.728Z,1016.89
2017-05-26T13:56:54.820Z,1016.86
2017-05-26T13:58:06.039Z,1016.77
2017-05-26T13:59:17.259Z,1016.77
2017-05-26T14:00:28.289Z,1016.8
2017-05-26T14:01:39.313Z,1016.8
2017-05-26T14:02:50.389Z,1016.83
2017-05-26T14:04:01.616Z,1016.78
2017-05-26T14:05:12.651Z,1016.76
2017-05-26T14:06:23.675Z,1016.71
2017-05-26T14:07:34.697Z,1016.75
2017-05-26T14:08:45.981Z,1016.72
2017-05-26T14:09:57.005Z,1016.73
2017-05-26T14:11:08.224Z,1016.73
2017-05-26T14:12:19.463Z,1016.73
2017-05-26T14:13:30.478Z,1016.82
2017-05-26T14:14:41.554Z,1016.78
2017-05-26T14:15:52.587Z,1016.78
2017-05-26T14:17:03.610Z,1016.72
2017-05-26T14:18:14.635Z,1016.71
2017-05-26T14:19:25.667Z,1016.67
2017-05-26T14:20:36.735Z,1016.66
2017-05-26T14:21:47.768Z,1016.64
2017-05-26T14:22:58.817Z,1016.65
2017-05-26T14:24:09.834Z,1016.68
2017-05-26T14:25:21.053Z,1016.68
2017-05-26T14:26:32.128Z,1016.62
2017-05-26T14:27:43.145Z,1016.6
2017-05-26T14:28:54.186Z,1016.65